Time;durP1;ratioP1;P1;durP2;ratioP2;P2;SDS_P1;SDS_P2;PMS_P1;PMS_P2;Temp;Humidity;BMP_temperature;BMP_pressure;BME280_temperature;BME280_humidity;BME280_pressure;Samples;Min_cycle;Max_cycle;Signal;HPM_P1;HPM_P2
2021/12/01 00:01:05;;;;;;;3.50;2.30;;;;;;;4.98;95.55;99477.22;5071275;28;20094;-65
2021/12/01 00:03:31;;;;;;;4.95;2.38;;;;;;;4.94;95.57;99468.66;5071225;28;20457;-65
2021/12/01 00:05:56;;;;;;;4.03;2.40;;;;;;;4.98;95.32;99480.75;5071284;28;20403;-67
2021/12/01 00:08:22;;;;;;;3.70;2.42;;;;;;;5.00;95.04;99472.66;5071103;28;20036;-66
2021/12/01 00:10:48;;;;;;;5.07;2.42;;;;;;;5.10;93.71;99481.59;5070810;28;20032;-65
2021/12/01 00:13:16;;;;;;;3.80;2.50;;;;;;;5.05;93.82;99473.13;5071101;28;20052;-66
2021/12/01 00:15:44;;;;;;;3.40;2.60;;;;;;;5.07;94.04;99490.66;5071348;28;20028;-69
2021/12/01 00:18:10;;;;;;;3.47;2.45;;;;;;;5.07;93.86;99498.63;5071163;28;20420;-69
2021/12/01 00:20:37;;;;;;;5.88;2.88;;;;;;;5.10;92.88;99495.72;5071373;28;20393;-68
2021/12/01 00:23:04;;;;;;;3.30;2.47;;;;;;;5.19;92.22;99499.47;5071123;28;20111;-69
2021/12/01 00:25:31;;;;;;;3.75;2.33;;;;;;;5.11;93.04;99505.38;5071243;28;20040;-69
2021/12/01 00:27:56;;;;;;;5.38;2.78;;;;;;;5.12;93.24;99511.56;5076422;28;20040;-69
2021/12/01 00:30:23;;;;;;;6.57;2.80;;;;;;;5.08;93.41;99505.63;5091486;28;20038;-68
2021/12/01 00:32:52;;;;;;;3.95;2.58;;;;;;;5.06;93.44;99504.88;5091506;28;20030;-68
2021/12/01 00:35:18;;;;;;;4.40;2.38;;;;;;;5.11;93.15;99505.38;5091150;28;20104;-70
2021/12/01 00:37:43;;;;;;;3.60;2.22;;;;;;;5.10;92.70;99519.66;5091521;28;20118;-70
2021/12/01 00:40:11;;;;;;;5.13;2.60;;;;;;;5.12;92.39;99512.38;5091286;28;20038;-69
2021/12/01 00:42:37;;;;;;;3.83;2.45;;;;;;;5.13;92.76;99507.91;5091354;28;20372;-68
2021/12/01 00:45:17;;;;;;;6.03;2.70;;;;;;;5.21;91.36;99524.94;5091140;28;20094;-68
2021/12/01 00:47:46;;;;;;;4.75;2.63;;;;;;;5.21;91.28;99509.00;5089325;28;20016;-69
2021/12/01 00:50:16;;;;;;;5.68;2.80;;;;;;;5.24;91.08;99522.06;5073016;28;20034;-66
2021/12/01 00:52:41;;;;;;;8.75;3.10;;;;;;;5.28;89.31;99526.16;5090779;28;20107;-66
2021/12/01 00:55:08;;;;;;;3.85;2.53;;;;;;;5.30;89.38;99516.25;5090686;28;20104;-67
2021/12/01 00:57:34;;;;;;;4.63;2.63;;;;;;;5.33;88.38;99513.38;5090650;28;20027;-65
2021/12/01 00:59:59;;;;;;;6.97;2.95;;;;;;;5.41;87.88;99526.03;5090716;28;20080;-66
2021/12/01 01:02:25;;;;;;;3.00;2.22;;;;;;;5.41;87.90;99526.03;5090355;28;20031;-67
2021/12/01 01:04:50;;;;;;;3.38;2.28;;;;;;;5.44;87.79;99520.47;5090611;28;20044;-67
2021/12/01 01:07:16;;;;;;;2.72;2.03;;;;;;;5.42;88.18;99517.09;5072600;28;20035;-67
2021/12/01 01:09:43;;;;;;;5.35;2.63;;;;;;;5.39;88.56;99525.31;5090533;28;20028;-67
2021/12/01 01:17:38;;;;;;;3.05;2.35;;;;;;;5.42;89.29;99517.94;5090490;28;20419;-65
2021/12/01 01:20:08;;;;;;;3.22;2.08;;;;;;;5.44;88.90;99504.50;5090579;28;20028;-66
2021/12/01 01:22:34;;;;;;;3.00;2.00;;;;;;;5.53;87.80;99509.09;5090401;28;20021;-66
2021/12/01 01:24:59;;;;;;;2.92;1.92;;;;;;;5.61;87.33;99510.19;5090462;28;20024;-66
2021/12/01 01:27:25;;;;;;;3.80;2.30;;;;;;;5.66;88.18;99520.44;5090524;28;20036;-66
2021/12/01 01:29:50;;;;;;;3.38;2.20;;;;;;;5.70;87.48;99522.75;5090492;28;20085;-66
2021/12/01 01:32:16;;;;;;;2.30;1.92;;;;;;;5.67;87.98;99519.50;5094509;28;20016;-66
2021/12/01 01:34:41;;;;;;;3.60;2.67;;;;;;;5.63;88.26;99516.22;5094397;28;20039;-66
2021/12/01 01:37:07;;;;;;;4.28;2.00;;;;;;;5.74;88.48;99532.16;5094206;28;20377;-66
2021/12/01 01:39:33;;;;;;;4.05;2.33;;;;;;;5.73;88.76;99534.94;5094286;28;20084;-66
2021/12/01 01:41:58;;;;;;;3.10;2.03;;;;;;;5.79;87.79;99529.97;5093990;28;20036;-67
2021/12/01 01:44:24;;;;;;;4.63;2.58;;;;;;;5.80;87.60;99530.84;5094237;28;20020;-66
2021/12/01 01:46:50;;;;;;;3.70;2.40;;;;;;;5.91;87.07;99537.00;5094060;28;20036;-67
2021/12/01 01:51:41;;;;;;;3.17;2.33;;;;;;;5.92;87.68;99544.03;5094286;28;20028;-70
2021/12/01 01:54:07;;;;;;;4.85;2.63;;;;;;;5.98;87.82;99532.88;5075991;28;20032;-67
2021/12/01 01:56:32;;;;;;;5.05;2.95;;;;;;;5.95;87.56;99530.47;5093893;28;20106;-65
2021/12/01 01:58:58;;;;;;;6.38;2.55;;;;;;;5.93;88.13;99540.38;5093801;28;20024;-66
2021/12/01 02:03:56;;;;;;;6.07;3.13;;;;;;;6.13;87.26;99534.25;5093800;28;20377;-65
2021/12/01 02:06:25;;;;;;;4.53;2.72;;;;;;;6.13;87.03;99528.94;5093818;28;20035;-67
2021/12/01 02:08:53;;;;;;;6.75;2.90;;;;;;;6.15;87.24;99534.13;5075573;28;20032;-67
2021/12/01 02:11:21;;;;;;;4.80;3.03;;;;;;;6.18;87.26;99525.91;5075417;28;20020;-65
2021/12/01 02:13:48;;;;;;;4.18;2.72;;;;;;;6.13;87.38;99528.94;5093760;28;20040;-66
2021/12/01 02:16:14;;;;;;;5.07;2.45;;;;;;;6.16;87.94;99539.34;5093464;28;20073;-68
2021/12/01 02:18:41;;;;;;;5.50;2.80;;;;;;;6.08;88.43;99535.63;5093446;28;20457;-66
2021/12/01 02:21:16;;;;;;;5.43;2.42;;;;;;;6.08;88.94;99536.47;5093447;28;20036;-66
2021/12/01 02:23:44;;;;;;;4.50;3.03;;;;;;;6.08;89.11;99544.47;5093396;28;20048;-67
2021/12/01 02:26:11;;;;;;;4.57;2.90;;;;;;;6.11;89.33;99548.69;5093303;28;20456;-67
2021/12/01 02:28:38;;;;;;;5.50;3.58;;;;;;;6.10;89.63;99544.34;5093286;28;20081;-66
2021/12/01 02:31:04;;;;;;;6.20;3.70;;;;;;;6.12;89.34;99548.56;5093422;28;20111;-66
2021/12/01 02:33:30;;;;;;;8.73;3.75;;;;;;;6.10;89.38;99544.34;5093357;28;20027;-65
2021/12/01 02:35:55;;;;;;;6.25;3.47;;;;;;;6.02;89.57;99529.00;5093254;28;20541;-66
2021/12/01 02:38:22;;;;;;;7.78;3.80;;;;;;;6.08;88.58;99532.97;5093121;28;20035;-68
2021/12/01 02:40:50;;;;;;;5.43;3.15;;;;;;;6.12;88.82;99537.06;5093326;28;20421;-65
2021/12/01 02:43:16;;;;;;;4.97;2.85;;;;;;;6.13;88.61;99541.44;5078919;28;20027;-66
2021/12/01 02:45:43;;;;;;;5.22;2.67;;;;;;;6.05;88.19;99528.75;5094876;28;20046;-67
2021/12/01 02:48:11;;;;;;;4.03;2.10;;;;;;;6.15;87.87;99537.66;5095431;28;20425;-66
2021/12/01 02:50:39;;;;;;;6.70;2.42;;;;;;;6.16;87.63;99547.31;5095321;28;20114;-66
2021/12/01 02:53:05;;;;;;;3.92;2.20;;;;;;;6.09;87.02;99540.81;5095810;28;20028;-66
2021/12/01 02:55:31;;;;;;;5.13;2.50;;;;;;;6.18;87.11;99558.72;5098050;28;20115;-66
2021/12/01 02:57:59;;;;;;;4.60;2.50;;;;;;;6.14;86.50;99554.63;5097708;28;20031;-65
2021/12/01 03:00:25;;;;;;;3.35;2.00;;;;;;;6.23;84.08;99550.34;5095187;28;20027;-66
2021/12/01 03:02:54;;;;;;;3.60;2.00;;;;;;;6.17;84.09;99546.38;5099221;28;20035;-66
2021/12/01 03:05:19;;;;;;;2.97;2.20;;;;;;;6.22;83.06;99546.81;5078040;28;20111;-67
2021/12/01 03:07:45;;;;;;;4.43;2.50;;;;;;;6.16;83.92;99546.50;5095758;28;20116;-66
2021/12/01 03:10:12;;;;;;;2.55;2.05;;;;;;;6.09;83.00;99537.31;5096632;28;20107;-66
2021/12/01 03:12:39;;;;;;;4.55;2.30;;;;;;;6.08;83.00;99536.47;5097710;28;20043;-67
2021/12/01 03:15:07;;;;;;;3.00;1.95;;;;;;;6.10;82.75;99544.34;5097001;28;20356;-66
2021/12/01 03:17:32;;;;;;;3.63;2.47;;;;;;;6.04;82.46;99539.50;5098449;28;20415;-67
2021/12/01 03:19:59;;;;;;;3.17;2.00;;;;;;;6.15;80.21;99544.78;5097387;28;20034;-67
2021/12/01 03:22:25;;;;;;;3.05;1.92;;;;;;;6.21;79.92;99544.28;5094568;28;20024;-67
2021/12/01 03:24:51;;;;;;;5.32;2.17;;;;;;;6.10;79.68;99531.03;5098534;28;20043;-67
2021/12/01 03:27:17;;;;;;;3.38;2.15;;;;;;;6.12;79.99;99545.91;5094092;28;20039;-66
2021/12/01 03:29:45;;;;;;;3.10;2.00;;;;;;;6.18;80.12;99550.72;5097408;28;20036;-67
2021/12/01 03:32:11;;;;;;;2.15;1.75;;;;;;;6.16;80.46;99557.97;5095947;28;20028;-67
2021/12/01 03:34:37;;;;;;;2.88;2.17;;;;;;;6.08;81.06;99555.09;5094786;28;20019;-66
2021/12/01 03:37:03;;;;;;;3.10;1.73;;;;;;;6.04;81.19;99563.47;5094187;28;20062;-67
2021/12/01 03:39:29;;;;;;;2.97;1.90;;;;;;;6.02;81.79;99576.91;5092030;28;20036;-67
2021/12/01 03:41:54;;;;;;;5.10;2.30;;;;;;;6.02;81.89;99571.56;5092071;28;20180;-67
2021/12/01 03:44:20;;;;;;;4.50;2.30;;;;;;;5.99;81.85;99570.97;5092013;28;20131;-66
2021/12/01 03:46:45;;;;;;;3.90;2.53;;;;;;;5.98;81.58;99572.81;5073715;28;20024;-67
2021/12/01 03:49:11;;;;;;;5.43;2.47;;;;;;;6.01;81.57;99569.03;5091764;28;20028;-67
2021/12/01 03:51:36;;;;;;;2.28;1.92;;;;;;;5.99;82.27;99573.63;5091787;28;20068;-67
2021/12/01 03:54:02;;;;;;;2.17;1.80;;;;;;;6.03;81.51;99586.56;5091288;28;20372;-67
2021/12/01 03:56:29;;;;;;;3.88;2.10;;;;;;;5.97;81.57;99576.41;5091890;28;20036;-66
2021/12/01 03:58:56;;;;;;;3.25;1.83;;;;;;;6.02;81.76;99590.19;5091753;28;20031;-67
2021/12/01 04:01:21;;;;;;;4.85;2.35;;;;;;;6.03;82.01;99594.53;5091486;28;20105;-67
2021/12/01 04:03:47;;;;;;;3.50;2.22;;;;;;;6.00;81.69;99593.97;5091498;28;20062;-67
2021/12/01 04:06:12;;;;;;;4.07;2.00;;;;;;;6.01;81.58;99601.84;5073402;28;20036;-67
2021/12/01 04:08:38;;;;;;;3.15;1.75;;;;;;;5.99;81.85;99593.09;5091557;28;20027;-65
2021/12/01 04:11:03;;;;;;;3.35;2.00;;;;;;;5.98;81.06;99586.09;5091599;28;20039;-67
2021/12/01 04:13:29;;;;;;;4.00;2.38;;;;;;;6.01;81.15;99601.84;5091484;28;20135;-66
2021/12/01 04:15:55;;;;;;;4.43;2.13;;;;;;;5.98;80.99;99593.22;5091273;28;20031;-67
2021/12/01 04:18:20;;;;;;;4.72;2.22;;;;;;;6.02;80.26;99597.34;5091419;28;20415;-67
2021/12/01 04:20:46;;;;;;;4.78;2.55;;;;;;;5.99;80.68;99603.75;5091346;28;20035;-67
2021/12/01 04:23:11;;;;;;;5.35;2.55;;;;;;;6.03;80.06;99615.84;5091078;28;20028;-67
2021/12/01 04:25:37;;;;;;;5.13;2.22;;;;;;;6.03;80.00;99604.38;5073031;28;20057;-67
2021/12/01 04:28:03;;;;;;;4.70;2.42;;;;;;;5.96;80.67;99603.13;5090990;28;20040;-66
2021/12/01 04:30:29;;;;;;;3.88;2.28;;;;;;;5.97;80.66;99613.66;5091373;28;20123;-67
2021/12/01 04:32:56;;;;;;;4.55;2.35;;;;;;;5.97;81.30;99624.31;5091087;28;20024;-67
2021/12/01 04:35:24;;;;;;;3.42;2.10;;;;;;;5.98;81.44;99627.81;5088835;28;20024;-67
2021/12/01 04:37:51;;;;;;;5.65;2.63;;;;;;;5.96;81.87;99627.94;5090985;28;20036;-66
2021/12/01 04:40:17;;;;;;;5.55;2.30;;;;;;;5.98;82.04;99641.13;5090964;28;20024;-66
2021/12/01 04:42:43;;;;;;;6.88;2.30;;;;;;;5.95;82.52;99631.59;5072720;28;20040;-68
2021/12/01 04:45:14;;;;;;;4.43;2.75;;;;;;;5.94;82.87;99643.19;5090966;28;20039;-66
2021/12/01 04:48:00;;;;;;;3.67;2.05;;;;;;;5.92;82.80;99639.81;5090859;28;20100;-66
2021/12/01 04:50:27;;;;;;;4.63;1.88;;;;;;;5.92;83.47;99646.94;5090362;28;20036;-66
2021/12/01 04:52:55;;;;;;;3.17;2.08;;;;;;;5.93;83.58;99649.47;5090920;28;20020;-67
2021/12/01 04:55:22;;;;;;;4.03;2.10;;;;;;;5.92;83.36;99653.13;5090725;28;20047;-67
2021/12/01 04:57:48;;;;;;;2.97;1.90;;;;;;;5.91;83.89;99653.25;5090695;28;20035;-67
2021/12/01 05:00:26;;;;;;;4.82;2.15;;;;;;;5.94;83.82;99664.47;5090738;28;20027;-66
2021/12/01 05:02:51;;;;;;;3.50;2.28;;;;;;;5.98;83.60;99663.28;5089531;28;20103;-67
2021/12/01 05:05:17;;;;;;;4.28;2.30;;;;;;;5.97;83.10;99677.53;5092270;28;20107;-66
2021/12/01 05:07:43;;;;;;;3.58;2.35;;;;;;;6.01;82.69;99673.69;5076861;28;20028;-67
2021/12/01 05:10:09;;;;;;;3.95;2.17;;;;;;;6.02;82.03;99678.03;5094741;28;20136;-66
2021/12/01 05:12:35;;;;;;;4.53;2.08;;;;;;;6.03;82.14;99676.22;5094870;28;20065;-65
2021/12/01 05:15:01;;;;;;;3.17;2.00;;;;;;;6.04;82.31;99678.78;5094955;28;20035;-68
2021/12/01 05:17:26;;;;;;;5.65;2.25;;;;;;;6.04;82.63;99686.75;5094801;28;20024;-67
2021/12/01 05:19:52;;;;;;;4.57;2.30;;;;;;;6.10;81.65;99701.38;5094604;28;20028;-67
2021/12/01 05:22:17;;;;;;;3.50;2.05;;;;;;;6.08;81.40;99703.31;5094492;28;20031;-66
2021/12/01 05:24:43;;;;;;;5.40;2.60;;;;;;;6.11;81.10;99700.41;5094554;28;20491;-67
2021/12/01 05:27:09;;;;;;;4.50;2.55;;;;;;;6.12;80.90;99702.09;5094730;28;20032;-66
2021/12/01 05:29:34;;;;;;;4.10;2.63;;;;;;;6.09;80.19;99689.88;5072845;28;20475;-67
2021/12/01 05:32:00;;;;;;;4.82;2.22;;;;;;;6.12;79.84;99683.47;5074310;28;20028;-67
2021/12/01 05:34:26;;;;;;;6.55;2.75;;;;;;;6.17;78.81;99703.44;5078497;28;20044;-65
2021/12/01 05:36:54;;;;;;;4.03;2.33;;;;;;;6.24;77.54;99709.97;5076248;28;20427;-66
2021/12/01 05:39:20;;;;;;;5.68;2.80;;;;;;;6.26;77.60;99716.00;5075116;28;20535;-67
2021/12/01 05:41:46;;;;;;;4.82;2.53;;;;;;;6.19;77.99;99695.34;5073887;28;20064;-66
2021/12/01 05:44:12;;;;;;;3.78;1.88;;;;;;;6.22;77.96;99713.69;5074097;28;20035;-66
2021/12/01 05:46:37;;;;;;;2.92;2.47;;;;;;;6.19;78.25;99698.81;5074008;28;20028;-67
2021/12/01 05:49:04;;;;;;;3.42;2.03;;;;;;;6.27;78.17;99711.53;5074194;28;20028;-66
2021/12/01 05:51:30;;;;;;;4.20;2.50;;;;;;;6.30;77.76;99706.81;5074056;28;20033;-68
2021/12/01 05:53:56;;;;;;;3.38;2.20;;;;;;;6.37;77.84;99718.66;5073874;28;20420;-67
2021/12/01 05:56:21;;;;;;;4.53;2.08;;;;;;;6.39;77.64;99721.22;5073590;28;20040;-67
2021/12/01 05:58:47;;;;;;;4.00;2.13;;;;;;;6.37;78.94;99724.00;5073808;28;20043;-67
2021/12/01 06:01:12;;;;;;;3.55;2.28;;;;;;;6.35;79.23;99736.56;5073813;28;20020;-67
2021/12/01 06:03:39;;;;;;;3.40;2.47;;;;;;;6.33;79.42;99743.84;5073805;28;20029;-67
2021/12/01 06:06:04;;;;;;;3.90;2.35;;;;;;;6.32;79.01;99744.81;5073844;28;20161;-67
2021/12/01 06:08:30;;;;;;;5.03;2.80;;;;;;;6.38;79.00;99752.31;5073682;28;20053;-65
2021/12/01 06:10:56;;;;;;;3.33;2.22;;;;;;;6.33;79.54;99749.19;5062651;28;20032;-67
2021/12/01 06:13:21;;;;;;;3.88;2.08;;;;;;;6.36;79.96;99764.88;5070066;28;20024;-66
2021/12/01 06:15:51;;;;;;;3.40;2.25;;;;;;;6.38;79.40;99760.31;5072185;28;20064;-67
2021/12/01 06:18:18;;;;;;;4.47;2.45;;;;;;;6.36;79.89;99761.41;5072431;28;20054;-67
2021/12/01 06:23:56;;;;;;;4.53;2.45;;;;;;;6.36;80.58;99770.22;5022620;28;20076;-69
2021/12/01 06:26:21;;;;;;;4.88;2.25;;;;;;;6.38;80.54;99752.31;5061085;28;20075;-66
2021/12/01 06:28:47;;;;;;;4.25;2.63;;;;;;;6.51;80.50;99777.00;5084590;28;20083;-69
2021/12/01 06:31:12;;;;;;;6.88;2.65;;;;;;;6.54;80.49;99774.09;5092245;28;20162;-67
2021/12/01 06:33:38;;;;;;;7.65;3.13;;;;;;;6.51;80.99;99774.34;5092088;28;20035;-67
2021/12/01 06:36:03;;;;;;;4.50;2.88;;;;;;;6.53;80.92;99780.41;5092311;28;20028;-67
2021/12/01 06:38:29;;;;;;;5.53;2.58;;;;;;;6.50;81.74;99771.78;5092344;28;20453;-67
2021/12/01 06:40:55;;;;;;;5.60;2.67;;;;;;;6.57;81.43;99776.50;5092094;28;20032;-68
2021/12/01 06:43:20;;;;;;;5.40;2.47;;;;;;;6.70;80.72;99782.56;5092019;28;20127;-67
2021/12/01 06:45:46;;;;;;;5.22;2.80;;;;;;;6.72;80.97;99772.63;5092313;28;20411;-68
2021/12/01 06:48:11;;;;;;;4.47;2.58;;;;;;;6.70;81.20;99777.22;5091831;28;20103;-67
2021/12/01 06:50:37;;;;;;;6.13;3.10;;;;;;;6.68;81.66;99779.16;5073683;28;20032;-66
2021/12/01 06:53:04;;;;;;;7.70;3.45;;;;;;;6.66;81.33;99780.25;5073861;28;20042;-67
2021/12/01 06:55:30;;;;;;;4.50;3.47;;;;;;;6.66;81.34;99780.25;5092379;28;20036;-66
2021/12/01 06:57:55;;;;;;;6.05;2.88;;;;;;;6.74;80.91;99781.31;5092786;28;20047;-67
2021/12/01 07:00:21;;;;;;;7.07;3.00;;;;;;;6.77;80.69;99783.75;5092893;28;20055;-66
2021/12/01 07:02:46;;;;;;;5.05;2.92;;;;;;;6.83;80.53;99785.06;5092765;28;20093;-66
2021/12/01 07:05:12;;;;;;;6.68;2.97;;;;;;;6.86;80.37;99791.00;5074436;28;20046;-66
2021/12/01 07:07:38;;;;;;;6.35;3.75;;;;;;;6.88;80.14;99797.06;5092866;28;20028;-67
2021/12/01 07:10:09;;;;;;;6.35;3.17;;;;;;;6.85;80.24;99794.66;5092834;28;20099;-67
2021/12/01 07:12:35;;;;;;;6.93;3.72;;;;;;;6.85;81.31;99794.66;5092981;28;20028;-67
2021/12/01 07:15:01;;;;;;;5.70;3.20;;;;;;;6.85;81.62;99793.78;5092619;28;20044;-67
2021/12/01 07:17:26;;;;;;;5.43;3.50;;;;;;;6.85;80.91;99793.78;5073088;28;20032;-68
2021/12/01 07:19:52;;;;;;;8.40;4.15;;;;;;;6.91;80.86;99811.97;5091780;28;20050;-67
2021/12/01 07:22:18;;;;;;;7.53;4.32;;;;;;;6.91;80.77;99806.63;5091630;28;20028;-67
2021/12/01 07:24:45;;;;;;;10.23;4.82;;;;;;;6.89;80.69;99806.75;5092242;28;20059;-67
2021/12/01 07:27:11;;;;;;;9.50;4.35;;;;;;;6.90;80.52;99797.78;5091647;28;20074;-67
2021/12/01 07:29:36;;;;;;;6.75;4.22;;;;;;;6.92;80.65;99814.50;5091767;28;20083;-67
2021/12/01 07:32:04;;;;;;;8.98;4.07;;;;;;;6.92;80.30;99811.84;5092174;28;20028;-66
2021/12/01 07:34:29;;;;;;;8.48;3.60;;;;;;;6.93;80.03;99810.84;5073832;28;20056;-67
2021/12/01 07:36:55;;;;;;;6.18;3.97;;;;;;;6.96;79.30;99807.94;5092018;28;20111;-67
2021/12/01 07:39:20;;;;;;;4.82;3.30;;;;;;;6.93;78.58;99796.66;5091814;28;20070;-66
2021/12/01 07:41:47;;;;;;;6.22;3.28;;;;;;;7.04;77.71;99802.00;5091840;28;20039;-66
2021/12/01 07:44:13;;;;;;;6.57;3.25;;;;;;;7.07;77.43;99786.56;5092013;28;20036;-70
2021/12/01 07:46:38;;;;;;;7.85;3.53;;;;;;;7.19;76.67;99794.56;5092396;28;20456;-69
2021/12/01 07:49:04;;;;;;;4.85;3.08;;;;;;;7.24;75.29;99773.66;5092534;28;20027;-70
2021/12/01 07:51:30;;;;;;;4.47;3.00;;;;;;;7.33;74.96;99780.91;5092500;28;20043;-69
2021/12/01 07:53:55;;;;;;;7.50;3.28;;;;;;;7.34;74.39;99771.94;5092334;28;20048;-70
2021/12/01 07:56:21;;;;;;;7.72;3.30;;;;;;;7.39;75.18;99765.25;5092432;28;20066;-70
2021/12/01 07:58:47;;;;;;;5.35;3.63;;;;;;;7.45;74.82;99769.25;5092393;28;20097;-70
2021/12/01 08:01:12;;;;;;;4.70;3.08;;;;;;;7.52;74.15;99768.59;5092349;28;20024;-69
2021/12/01 08:03:37;;;;;;;5.55;3.20;;;;;;;7.55;73.73;99760.34;5074211;28;20111;-70
2021/12/01 08:06:03;;;;;;;8.65;3.50;;;;;;;7.57;73.38;99763.69;5092211;28;20028;-71
2021/12/01 08:08:29;;;;;;;5.40;3.28;;;;;;;7.62;73.00;99761.50;5092226;28;20028;-69
2021/12/01 08:10:55;;;;;;;7.57;3.83;;;;;;;7.70;73.27;99760.88;5092101;28;20070;-70
2021/12/01 08:13:21;;;;;;;7.70;4.82;;;;;;;7.73;72.12;99745.41;5092306;28;20042;-70
2021/12/01 08:15:47;;;;;;;9.43;5.15;;;;;;;7.79;72.77;99768.06;5091954;28;20015;-70
2021/12/01 08:18:14;;;;;;;9.77;5.43;;;;;;;7.79;73.29;99760.06;5092068;28;20032;-69
2021/12/01 08:20:39;;;;;;;6.82;4.63;;;;;;;7.86;73.44;99758.56;5092185;28;20038;-70
2021/12/01 08:23:05;;;;;;;6.63;4.53;;;;;;;7.82;73.78;99754.47;5092140;28;20115;-70
2021/12/01 08:25:31;;;;;;;6.38;3.83;;;;;;;7.88;73.81;99762.81;5091680;28;20020;-69
2021/12/01 08:27:56;;;;;;;8.18;4.22;;;;;;;7.89;74.26;99764.50;5091626;28;20044;-70
2021/12/01 08:30:22;;;;;;;6.95;3.28;;;;;;;7.94;73.36;99756.09;5091838;28;20047;-70
2021/12/01 08:32:47;;;;;;;6.13;3.67;;;;;;;7.94;73.60;99758.75;5091919;28;20353;-71
2021/12/01 08:35:14;;;;;;;7.22;3.35;;;;;;;7.94;74.11;99759.63;5091862;28;20503;-69
2021/12/01 08:37:40;;;;;;;5.18;3.25;;;;;;;7.93;74.23;99767.75;5091755;28;20023;-70
2021/12/01 08:40:06;;;;;;;6.85;3.78;;;;;;;7.87;74.67;99749.59;5091853;28;20024;-69
2021/12/01 08:42:33;;;;;;;8.70;4.60;;;;;;;7.97;75.30;99766.50;5091820;28;20043;-71
2021/12/01 08:45:00;;;;;;;8.57;4.57;;;;;;;7.95;75.39;99771.13;5091360;28;20047;-70
2021/12/01 08:47:25;;;;;;;10.85;4.90;;;;;;;7.91;75.45;99775.03;5091496;28;20023;-71
2021/12/01 08:49:51;;;;;;;7.28;4.45;;;;;;;7.97;75.15;99788.69;5073109;28;20506;-68
2021/12/01 08:52:17;;;;;;;9.23;4.38;;;;;;;7.98;76.10;99773.53;5090949;28;20022;-66
2021/12/01 08:54:43;;;;;;;11.57;4.70;;;;;;;8.02;76.07;99780.28;5090830;28;20024;-67
2021/12/01 08:57:09;;;;;;;7.72;3.90;;;;;;;8.07;76.18;99786.97;5090985;28;20469;-66
2021/12/01 08:59:35;;;;;;;7.05;3.80;;;;;;;8.15;76.38;99783.59;5072709;28;20051;-67
2021/12/01 09:02:01;;;;;;;6.47;3.65;;;;;;;8.16;76.59;99774.63;5091578;28;20038;-70
2021/12/01 09:04:27;;;;;;;7.28;3.80;;;;;;;8.23;76.09;99773.16;5091437;28;20476;-70
2021/12/01 09:06:53;;;;;;;6.78;3.38;;;;;;;8.28;75.98;99770.91;5091454;28;20042;-69
2021/12/01 09:09:19;;;;;;;4.40;3.13;;;;;;;8.27;76.26;99762.06;5091486;28;20024;-69
2021/12/01 09:11:50;;;;;;;3.97;2.60;;;;;;;8.40;76.21;99775.19;5083922;28;20416;-68
2021/12/01 09:14:16;;;;;;;4.93;2.90;;;;;;;8.47;75.33;99769.16;5090645;28;20089;-67
2021/12/01 09:16:43;;;;;;;5.97;3.22;;;;;;;8.50;75.39;99768.06;5090491;28;20028;-67
2021/12/01 09:19:08;;;;;;;6.95;3.40;;;;;;;8.53;74.75;99770.44;5090923;28;20081;-67
2021/12/01 09:21:35;;;;;;;6.57;2.92;;;;;;;8.58;73.28;99768.25;5090613;28;20032;-66
2021/12/01 09:24:01;;;;;;;5.47;3.72;;;;;;;8.62;72.02;99764.31;5090759;28;20055;-68
2021/12/01 09:26:26;;;;;;;4.82;3.60;;;;;;;8.66;71.35;99771.91;5090490;28;20116;-67
2021/12/01 09:28:52;;;;;;;7.93;4.07;;;;;;;8.69;70.68;99777.00;5090266;28;20063;-68
2021/12/01 09:31:17;;;;;;;13.98;4.40;;;;;;;8.74;70.86;99782.75;5090666;28;20100;-67
2021/12/01 09:33:43;;;;;;;6.60;3.33;;;;;;;8.78;71.00;99778.00;5090532;28;20063;-66
2021/12/01 09:36:09;;;;;;;6.60;3.42;;;;;;;8.87;70.42;99771.84;5090931;28;20085;-67
2021/12/01 09:38:35;;;;;;;5.95;3.60;;;;;;;8.98;69.30;99771.72;5090513;28;20039;-68
2021/12/01 09:41:00;;;;;;;6.32;3.78;;;;;;;9.03;68.59;99769.47;5090367;28;20110;-66
2021/12/01 09:43:27;;;;;;;5.50;3.53;;;;;;;9.12;67.97;99769.47;5090297;28;20024;-66
2021/12/01 09:45:55;;;;;;;8.40;3.85;;;;;;;9.17;67.87;99766.41;5090351;28;20737;-67
2021/12/01 09:48:21;;;;;;;5.15;3.40;;;;;;;9.27;66.76;99753.88;5090249;28;20060;-67
2021/12/01 09:50:47;;;;;;;9.30;3.53;;;;;;;9.39;66.44;99760.78;5090928;28;20407;-68
2021/12/01 09:53:13;;;;;;;5.97;3.75;;;;;;;9.33;66.48;99734.56;5094096;28;20448;-67
2021/12/01 09:55:40;;;;;;;6.25;3.55;;;;;;;9.42;66.48;99741.75;5094078;28;20523;-66
2021/12/01 09:58:16;;;;;;;6.88;3.70;;;;;;;9.44;66.81;99745.13;5075784;28;20448;-67
2021/12/01 10:00:45;;;;;;;6.18;3.78;;;;;;;9.43;67.24;99726.53;5094240;28;20391;-66
2021/12/01 10:03:11;;;;;;;4.63;3.13;;;;;;;9.52;67.13;99731.03;5073612;28;20073;-68
2021/12/01 10:06:07;;;;;;;5.10;3.50;;;;;;;9.53;66.78;99727.38;5075885;28;20588;-67
2021/12/01 10:08:36;;;;;;;10.07;3.70;;;;;;;9.52;67.29;99721.19;5093991;28;20400;-67
2021/12/01 10:11:09;;;;;;;4.78;3.25;;;;;;;9.54;67.21;99721.06;5093816;28;20039;-67
2021/12/01 10:13:39;;;;;;;4.50;3.13;;;;;;;9.53;66.71;99696.09;5093792;28;20040;-66
2021/12/01 10:16:08;;;;;;;5.88;3.38;;;;;;;9.58;66.34;99698.34;5093750;28;20035;-68
2021/12/01 10:18:42;;;;;;;8.48;3.38;;;;;;;9.64;66.57;99701.28;5093691;28;20028;-68
2021/12/01 10:21:23;;;;;;;6.70;3.88;;;;;;;9.68;66.74;99696.50;5093601;28;20437;-67
2021/12/01 10:23:52;;;;;;;7.03;4.10;;;;;;;9.73;66.57;99705.78;5093563;28;20059;-67
2021/12/01 10:26:32;;;;;;;6.55;3.25;;;;;;;9.73;66.14;99705.78;5093392;28;20111;-67
2021/12/01 10:29:08;;;;;;;5.40;3.22;;;;;;;9.78;66.34;99700.00;5092891;28;20060;-67
2021/12/01 10:31:44;;;;;;;6.30;3.92;;;;;;;9.76;66.11;99693.94;5093379;28;20024;-67
2021/12/01 10:34:32;;;;;;;5.22;2.90;;;;;;;9.77;65.92;99707.16;5093628;28;20028;-66
2021/12/01 10:37:23;;;;;;;7.28;4.20;;;;;;;9.79;65.48;99702.53;5093083;28;20035;-66
2021/12/01 10:40:04;;;;;;;6.75;3.17;;;;;;;9.77;65.86;99699.13;5093167;28;20032;-66
2021/12/01 10:42:31;;;;;;;6.75;3.90;;;;;;;9.75;65.70;99695.78;5074888;28;20115;-67
2021/12/01 10:44:59;;;;;;;6.30;4.45;;;;;;;9.75;65.56;99695.78;5093319;28;20549;-67
2021/12/01 10:47:35;;;;;;;11.10;4.20;;;;;;;9.66;64.62;99672.53;5090806;28;20028;-68
2021/12/01 10:50:03;;;;;;;7.10;3.25;;;;;;;9.68;64.43;99677.75;5091130;28;20123;-67
2021/12/01 10:52:32;;;;;;;4.82;2.80;;;;;;;9.64;64.55;99666.47;5092994;28;20461;-66
2021/12/01 10:55:08;;;;;;;5.25;2.67;;;;;;;9.62;64.79;99675.66;5090801;28;20032;-67
2021/12/01 10:57:41;;;;;;;4.97;2.78;;;;;;;9.60;64.88;99677.63;5092856;28;20040;-67
2021/12/01 11:00:14;;;;;;;5.20;2.30;;;;;;;9.59;64.42;99673.25;5092718;28;20051;-68
2021/12/01 11:02:40;;;;;;;5.13;3.10;;;;;;;9.54;63.51;99657.63;5091641;28;20420;-67
2021/12/01 11:05:07;;;;;;;6.50;3.33;;;;;;;9.58;63.81;99656.38;5092652;28;20260;-68
2021/12/01 11:07:34;;;;;;;4.70;2.88;;;;;;;9.62;64.02;99670.28;5092645;28;20039;-67
2021/12/01 11:10:15;;;;;;;7.63;3.38;;;;;;;9.61;63.92;99666.75;5092416;28;20027;-66
2021/12/01 11:12:41;;;;;;;4.05;2.80;;;;;;;9.61;64.19;99658.72;5092752;28;20016;-67
2021/12/01 11:15:41;;;;;;;4.97;2.75;;;;;;;9.59;64.26;99654.53;5092268;28;21700;-67
2021/12/01 11:18:08;;;;;;;5.75;3.15;;;;;;;9.59;64.47;99655.38;5071474;28;20050;-67
2021/12/01 11:20:45;;;;;;;5.97;2.55;;;;;;;9.56;64.92;99644.97;5092424;28;20077;-67
2021/12/01 11:23:21;;;;;;;5.57;3.25;;;;;;;9.60;64.78;99656.19;5092319;28;20059;-67
2021/12/01 11:26:07;;;;;;;6.05;3.00;;;;;;;9.59;64.87;99655.38;5074231;28;20434;-67
2021/12/01 11:28:53;;;;;;;9.05;3.47;;;;;;;9.66;64.69;99655.63;5092198;28;20131;-67
2021/12/01 11:31:27;;;;;;;7.40;3.40;;;;;;;9.64;64.92;99645.06;5092267;28;20132;-66
2021/12/01 11:33:56;;;;;;;;;;;;;;;9.73;63.50;99640.66;5092613;28;20032;-66
2021/12/01 11:36:33;;;;;;;6.35;3.20;;;;;;;9.73;63.79;99636.16;5085390;28;19912;-67
2021/12/01 11:39:03;;;;;;;6.60;3.55;;;;;;;9.74;64.41;99640.53;5084423;28;20577;-67
2021/12/01 11:41:29;;;;;;;4.53;3.10;;;;;;;9.73;63.77;99649.56;5088699;28;20030;-66
2021/12/01 11:43:56;;;;;;;4.57;2.72;;;;;;;9.72;62.77;99638.97;5091345;28;20344;-67
2021/12/01 11:46:22;;;;;;;4.65;2.65;;;;;;;9.74;62.16;99623.63;5091743;28;20023;-67
2021/12/01 11:48:51;;;;;;;5.78;2.38;;;;;;;9.70;61.51;99612.34;5091400;28;20039;-67
2021/12/01 11:51:17;;;;;;;3.92;2.58;;;;;;;9.72;60.81;99612.22;5091659;28;20024;-67
2021/12/01 11:53:46;;;;;;;6.03;2.70;;;;;;;9.72;61.29;99605.03;5073588;28;20043;-68
2021/12/01 11:56:28;;;;;;;4.30;2.78;;;;;;;9.72;61.60;99599.69;5091709;28;20028;-67